Victoria Falls, Zimbabwe
Current Conditions -  °F | °C
As of 1:00 PM on Saturday 25 Oct 2014 (Local Time) from FBKE Reporting Station
Few Clouds Few Clouds  
Wind Chill: 99°   Ceiling: Unl
Heat Index: 99°   Visibility: 6mi
Dew Point: 41°   Wind: 9mph
Humidity: 14%   Direction: 330°NNW
Pressure: 29.91"   Gusts: NA
Location:  17.93°S, 25.84°E
Report Text: FBKE 251100Z 33008KT 280V030 9999 FEW030 37/05 Q1013
Loading
Personal Weather Stations






























Interactive Weather Map
Tropical Storm Tracking
New forecast layout! Learn more

10-Day Weather Forecast

Advertisements
Track Severe Weather on mobile